Terminal Aerodrome Forecast
Issued by NWS Atlanta, GA

Home | Current Version | Previous Version | Text Only | Print | Product List | Glossary On
Versions: 1 2 3 4 5 6 7 8 9 10 11 12 13 14 15 16 17 18 19 20 21 22 23 24 25 26 27 28 29 30 31 32 33 34 35 36 37 38 39 40
000
FTUS42 KFFC 190533
TAFAHN
TAF
KAHN 190533Z 1906/2006 26004KT P6SM SCT250
     FM191300 09005KT P6SM SCT025 SCT120 BKN250
     FM191800 11005KT P6SM SCT030 BKN100
     FM200200 12005KT P6SM -SHRA OVC015 PROB30 2003/2006 TSRA
      OVC015CB=

USA.gov is the U.S. government's official web portal to all federal, state and local government web resources and services.